sensor_id;sensor_type;location;lat;lon;timestamp;temperature;humidity
64888;DHT22;51386;53.082;8.816;2023-03-23T00:02:24;13.20;92.30
64888;DHT22;51386;53.082;8.816;2023-03-23T00:04:51;13.30;92.20
64888;DHT22;51386;53.082;8.816;2023-03-23T00:07:18;13.20;92.20
64888;DHT22;51386;53.082;8.816;2023-03-23T00:09:47;13.20;92.30
64888;DHT22;51386;53.082;8.816;2023-03-23T00:12:20;13.20;92.30
64888;DHT22;51386;53.082;8.816;2023-03-23T00:14:47;13.20;92.20
64888;DHT22;51386;53.082;8.816;2023-03-23T00:17:13;13.20;92.20
64888;DHT22;51386;53.082;8.816;2023-03-23T00:19:39;13.20;92.30
64888;DHT22;51386;53.082;8.816;2023-03-23T00:22:13;13.20;92.20
64888;DHT22;51386;53.082;8.816;2023-03-23T00:24:40;13.30;92.20
64888;DHT22;51386;53.082;8.816;2023-03-23T00:27:07;13.20;92.10
64888;DHT22;51386;53.082;8.816;2023-03-23T00:29:35;13.20;92.00
64888;DHT22;51386;53.082;8.816;2023-03-23T00:32:01;13.30;92.10
64888;DHT22;51386;53.082;8.816;2023-03-23T00:34:27;13.30;92.00
64888;DHT22;51386;53.082;8.816;2023-03-23T00:36:59;13.30;92.10
64888;DHT22;51386;53.082;8.816;2023-03-23T00:39:27;13.30;92.10
64888;DHT22;51386;53.082;8.816;2023-03-23T00:41:54;13.30;92.00
64888;DHT22;51386;53.082;8.816;2023-03-23T00:44:26;13.30;92.00
64888;DHT22;51386;53.082;8.816;2023-03-23T00:46:55;13.30;92.00
64888;DHT22;51386;53.082;8.816;2023-03-23T00:49:23;13.30;91.90
64888;DHT22;51386;53.082;8.816;2023-03-23T00:51:51;13.30;92.00
64888;DHT22;51386;53.082;8.816;2023-03-23T00:54:17;13.30;92.00
64888;DHT22;51386;53.082;8.816;2023-03-23T00:56:43;13.30;92.00
64888;DHT22;51386;53.082;8.816;2023-03-23T00:59:09;13.30;92.00
64888;DHT22;51386;53.082;8.816;2023-03-23T01:01:35;13.40;92.30
64888;DHT22;51386;53.082;8.816;2023-03-23T01:04:03;13.30;91.90
64888;DHT22;51386;53.082;8.816;2023-03-23T01:06:30;13.40;92.00
64888;DHT22;51386;53.082;8.816;2023-03-23T01:09:02;13.30;92.00
64888;DHT22;51386;53.082;8.816;2023-03-23T01:11:29;13.40;92.00
64888;DHT22;51386;53.082;8.816;2023-03-23T01:13:55;13.40;91.90
64888;DHT22;51386;53.082;8.816;2023-03-23T01:16:21;13.40;92.00
64888;DHT22;51386;53.082;8.816;2023-03-23T01:18:47;13.40;92.00
64888;DHT22;51386;53.082;8.816;2023-03-23T01:21:16;13.40;92.00
64888;DHT22;51386;53.082;8.816;2023-03-23T01:23:43;13.40;92.00
64888;DHT22;51386;53.082;8.816;2023-03-23T01:26:11;13.40;92.00
64888;DHT22;51386;53.082;8.816;2023-03-23T01:28:39;13.40;91.90
64888;DHT22;51386;53.082;8.816;2023-03-23T01:31:08;13.40;92.00
64888;DHT22;51386;53.082;8.816;2023-03-23T01:33:35;13.40;92.10
64888;DHT22;51386;53.082;8.816;2023-03-23T01:36:03;13.40;92.10
64888;DHT22;51386;53.082;8.816;2023-03-23T01:38:32;13.40;92.10
64888;DHT22;51386;53.082;8.816;2023-03-23T01:40:59;13.40;92.10
64888;DHT22;51386;53.082;8.816;2023-03-23T01:43:25;13.40;92.20
64888;DHT22;51386;53.082;8.816;2023-03-23T01:45:51;13.40;92.20
64888;DHT22;51386;53.082;8.816;2023-03-23T01:48:22;13.40;92.20
64888;DHT22;51386;53.082;8.816;2023-03-23T01:50:56;13.40;92.20
64888;DHT22;51386;53.082;8.816;2023-03-23T01:53:27;13.40;92.20
64888;DHT22;51386;53.082;8.816;2023-03-23T01:55:57;13.40;92.20
64888;DHT22;51386;53.082;8.816;2023-03-23T01:58:28;13.40;92.30
64888;DHT22;51386;53.082;8.816;2023-03-23T02:00:58;13.40;92.20
64888;DHT22;51386;53.082;8.816;2023-03-23T02:03:30;13.40;92.30
64888;DHT22;51386;53.082;8.816;2023-03-23T02:05:57;13.40;92.20
64888;DHT22;51386;53.082;8.816;2023-03-23T02:08:24;13.40;92.20
64888;DHT22;51386;53.082;8.816;2023-03-23T02:10:53;13.40;92.10
64888;DHT22;51386;53.082;8.816;2023-03-23T02:13:21;13.40;92.10
64888;DHT22;51386;53.082;8.816;2023-03-23T02:15:55;13.40;92.00
64888;DHT22;51386;53.082;8.816;2023-03-23T02:18:43;13.40;92.00
64888;DHT22;51386;53.082;8.816;2023-03-23T02:21:59;13.50;92.00
64888;DHT22;51386;53.082;8.816;2023-03-23T02:24:59;13.50;91.90
64888;DHT22;51386;53.082;8.816;2023-03-23T02:27:56;13.50;91.80
64888;DHT22;51386;53.082;8.816;2023-03-23T02:30:58;13.50;91.70
64888;DHT22;51386;53.082;8.816;2023-03-23T02:33:47;13.60;91.70
64888;DHT22;51386;53.082;8.816;2023-03-23T02:36:23;13.50;91.60
64888;DHT22;51386;53.082;8.816;2023-03-23T02:38:57;13.50;91.60
64888;DHT22;51386;53.082;8.816;2023-03-23T02:41:32;13.50;91.50
64888;DHT22;51386;53.082;8.816;2023-03-23T02:44:03;13.50;91.50
64888;DHT22;51386;53.082;8.816;2023-03-23T02:46:31;13.60;91.50
64888;DHT22;51386;53.082;8.816;2023-03-23T02:49:03;13.60;91.50
64888;DHT22;51386;53.082;8.816;2023-03-23T02:51:33;13.60;91.40
64888;DHT22;51386;53.082;8.816;2023-03-23T02:54:01;13.60;91.30
64888;DHT22;51386;53.082;8.816;2023-03-23T02:56:32;13.60;91.30
64888;DHT22;51386;53.082;8.816;2023-03-23T02:59:01;13.60;91.20
64888;DHT22;51386;53.082;8.816;2023-03-23T03:01:57;13.60;91.20
64888;DHT22;51386;53.082;8.816;2023-03-23T03:04:30;13.50;91.10
64888;DHT22;51386;53.082;8.816;2023-03-23T03:07:14;13.50;91.10
64888;DHT22;51386;53.082;8.816;2023-03-23T03:09:52;13.50;91.20
64888;DHT22;51386;53.082;8.816;2023-03-23T03:12:28;13.40;91.10
64888;DHT22;51386;53.082;8.816;2023-03-23T03:15:09;13.50;91.10
64888;DHT22;51386;53.082;8.816;2023-03-23T03:17:43;13.50;91.10
64888;DHT22;51386;53.082;8.816;2023-03-23T03:20:16;13.50;91.00
64888;DHT22;51386;53.082;8.816;2023-03-23T03:22:44;13.50;91.00
64888;DHT22;51386;53.082;8.816;2023-03-23T03:25:13;13.40;91.00
64888;DHT22;51386;53.082;8.816;2023-03-23T03:27:41;13.50;91.00
64888;DHT22;51386;53.082;8.816;2023-03-23T03:30:14;13.50;91.00
64888;DHT22;51386;53.082;8.816;2023-03-23T03:32:48;13.50;90.90
64888;DHT22;51386;53.082;8.816;2023-03-23T03:35:21;13.50;90.90
64888;DHT22;51386;53.082;8.816;2023-03-23T03:37:48;13.60;90.90
64888;DHT22;51386;53.082;8.816;2023-03-23T03:40:19;13.50;90.70
64888;DHT22;51386;53.082;8.816;2023-03-23T03:42:46;13.60;90.70
64888;DHT22;51386;53.082;8.816;2023-03-23T03:45:14;13.60;90.60
64888;DHT22;51386;53.082;8.816;2023-03-23T03:47:42;13.60;90.60
64888;DHT22;51386;53.082;8.816;2023-03-23T03:50:08;13.60;90.90
64888;DHT22;51386;53.082;8.816;2023-03-23T03:52:36;13.60;90.50
64888;DHT22;51386;53.082;8.816;2023-03-23T03:55:04;13.60;90.50
64888;DHT22;51386;53.082;8.816;2023-03-23T03:57:31;13.70;90.50
64888;DHT22;51386;53.082;8.816;2023-03-23T03:59:57;13.70;90.40
64888;DHT22;51386;53.082;8.816;2023-03-23T04:02:23;13.70;90.40
64888;DHT22;51386;53.082;8.816;2023-03-23T04:04:50;13.70;90.50
64888;DHT22;51386;53.082;8.816;2023-03-23T04:07:18;13.70;90.30
64888;DHT22;51386;53.082;8.816;2023-03-23T04:09:46;13.70;90.30
64888;DHT22;51386;53.082;8.816;2023-03-23T04:12:13;13.70;90.20
64888;DHT22;51386;53.082;8.816;2023-03-23T04:14:39;13.70;90.20
64888;DHT22;51386;53.082;8.816;2023-03-23T04:17:05;13.70;90.10
64888;DHT22;51386;53.082;8.816;2023-03-23T04:19:34;13.70;90.10
64888;DHT22;51386;53.082;8.816;2023-03-23T04:22:02;13.70;90.10
64888;DHT22;51386;53.082;8.816;2023-03-23T04:24:29;13.70;90.00
64888;DHT22;51386;53.082;8.816;2023-03-23T04:26:59;13.70;90.00
64888;DHT22;51386;53.082;8.816;2023-03-23T04:29:26;13.80;90.00
64888;DHT22;51386;53.082;8.816;2023-03-23T04:31:52;13.80;90.00
64888;DHT22;51386;53.082;8.816;2023-03-23T04:34:18;13.80;89.80
64888;DHT22;51386;53.082;8.816;2023-03-23T04:36:44;13.80;89.70
64888;DHT22;51386;53.082;8.816;2023-03-23T04:39:12;13.80;89.50
64888;DHT22;51386;53.082;8.816;2023-03-23T04:41:38;13.80;89.40
64888;DHT22;51386;53.082;8.816;2023-03-23T04:44:06;13.80;89.10
64888;DHT22;51386;53.082;8.816;2023-03-23T04:46:33;13.80;88.80
64888;DHT22;51386;53.082;8.816;2023-03-23T04:48:59;13.90;88.70
64888;DHT22;51386;53.082;8.816;2023-03-23T04:51:25;13.90;88.50
64888;DHT22;51386;53.082;8.816;2023-03-23T04:53:52;13.90;88.30
64888;DHT22;51386;53.082;8.816;2023-03-23T04:56:18;13.90;88.20
64888;DHT22;51386;53.082;8.816;2023-03-23T04:58:45;13.90;88.10
64888;DHT22;51386;53.082;8.816;2023-03-23T05:01:13;13.90;88.00
64888;DHT22;51386;53.082;8.816;2023-03-23T05:03:39;13.90;87.90
64888;DHT22;51386;53.082;8.816;2023-03-23T05:06:06;13.90;87.90
64888;DHT22;51386;53.082;8.816;2023-03-23T05:08:32;13.90;87.80
64888;DHT22;51386;53.082;8.816;2023-03-23T05:11:00;13.90;87.80
64888;DHT22;51386;53.082;8.816;2023-03-23T05:13:27;13.90;87.80
64888;DHT22;51386;53.082;8.816;2023-03-23T05:15:54;13.90;87.80
64888;DHT22;51386;53.082;8.816;2023-03-23T05:18:21;13.90;87.80
64888;DHT22;51386;53.082;8.816;2023-03-23T05:20:48;13.90;87.70
64888;DHT22;51386;53.082;8.816;2023-03-23T05:23:29;14.00;87.90
64888;DHT22;51386;53.082;8.816;2023-03-23T05:26:00;14.00;87.90
64888;DHT22;51386;53.082;8.816;2023-03-23T05:28:28;13.90;87.60
64888;DHT22;51386;53.082;8.816;2023-03-23T05:31:00;14.00;87.80
64888;DHT22;51386;53.082;8.816;2023-03-23T05:33:28;14.00;87.40
64888;DHT22;51386;53.082;8.816;2023-03-23T05:35:54;14.00;87.50
64888;DHT22;51386;53.082;8.816;2023-03-23T05:38:21;14.10;87.60
64888;DHT22;51386;53.082;8.816;2023-03-23T05:40:48;14.10;87.60
64888;DHT22;51386;53.082;8.816;2023-03-23T05:43:14;14.10;87.60
64888;DHT22;51386;53.082;8.816;2023-03-23T05:45:40;14.10;87.50
64888;DHT22;51386;53.082;8.816;2023-03-23T05:48:07;14.00;87.30
64888;DHT22;51386;53.082;8.816;2023-03-23T05:50:34;14.10;87.30
64888;DHT22;51386;53.082;8.816;2023-03-23T05:53:00;14.00;87.20
64888;DHT22;51386;53.082;8.816;2023-03-23T05:55:26;14.00;87.40
64888;DHT22;51386;53.082;8.816;2023-03-23T05:57:52;14.00;86.80
64888;DHT22;51386;53.082;8.816;2023-03-23T06:00:18;14.00;86.80
64888;DHT22;51386;53.082;8.816;2023-03-23T06:02:46;14.00;86.60
64888;DHT22;51386;53.082;8.816;2023-03-23T06:05:12;14.00;86.50
64888;DHT22;51386;53.082;8.816;2023-03-23T06:07:42;14.00;86.30
64888;DHT22;51386;53.082;8.816;2023-03-23T06:10:10;14.10;86.30
64888;DHT22;51386;53.082;8.816;2023-03-23T06:12:43;14.00;86.10
64888;DHT22;51386;53.082;8.816;2023-03-23T06:15:10;14.10;86.20
64888;DHT22;51386;53.082;8.816;2023-03-23T06:17:37;14.10;86.20
64888;DHT22;51386;53.082;8.816;2023-03-23T06:20:04;14.10;85.90
64888;DHT22;51386;53.082;8.816;2023-03-23T06:22:36;14.10;85.70
64888;DHT22;51386;53.082;8.816;2023-03-23T06:25:05;14.10;85.50
64888;DHT22;51386;53.082;8.816;2023-03-23T06:27:32;14.10;85.40
64888;DHT22;51386;53.082;8.816;2023-03-23T06:29:58;14.20;85.60
64888;DHT22;51386;53.082;8.816;2023-03-23T06:32:25;14.20;85.50
64888;DHT22;51386;53.082;8.816;2023-03-23T06:34:55;14.20;85.20
64888;DHT22;51386;53.082;8.816;2023-03-23T06:37:22;14.20;85.00
64888;DHT22;51386;53.082;8.816;2023-03-23T06:39:50;14.30;85.00
64888;DHT22;51386;53.082;8.816;2023-03-23T06:42:18;14.30;85.00
64888;DHT22;51386;53.082;8.816;2023-03-23T06:44:45;14.30;84.70
64888;DHT22;51386;53.082;8.816;2023-03-23T06:47:11;14.30;84.60
64888;DHT22;51386;53.082;8.816;2023-03-23T06:49:37;14.40;84.80
64888;DHT22;51386;53.082;8.816;2023-03-23T06:52:06;14.40;84.90
64888;DHT22;51386;53.082;8.816;2023-03-23T06:54:32;14.40;85.00
64888;DHT22;51386;53.082;8.816;2023-03-23T06:56:59;14.40;85.10
64888;DHT22;51386;53.082;8.816;2023-03-23T06:59:26;14.50;85.20
64888;DHT22;51386;53.082;8.816;2023-03-23T07:01:52;14.50;85.30
64888;DHT22;51386;53.082;8.816;2023-03-23T07:04:18;14.50;85.40
64888;DHT22;51386;53.082;8.816;2023-03-23T07:06:44;14.50;85.60
64888;DHT22;51386;53.082;8.816;2023-03-23T07:09:12;14.50;85.70
64888;DHT22;51386;53.082;8.816;2023-03-23T07:11:38;14.60;85.90
64888;DHT22;51386;53.082;8.816;2023-03-23T07:14:04;14.60;86.20
64888;DHT22;51386;53.082;8.816;2023-03-23T07:16:31;14.70;86.20
64888;DHT22;51386;53.082;8.816;2023-03-23T07:18:58;14.80;86.20
64888;DHT22;51386;53.082;8.816;2023-03-23T07:21:24;14.80;86.10
64888;DHT22;51386;53.082;8.816;2023-03-23T07:23:50;14.80;86.20
64888;DHT22;51386;53.082;8.816;2023-03-23T07:26:16;14.80;86.40
64888;DHT22;51386;53.082;8.816;2023-03-23T07:28:42;14.80;86.70
64888;DHT22;51386;53.082;8.816;2023-03-23T07:31:08;14.80;87.10
64888;DHT22;51386;53.082;8.816;2023-03-23T07:33:36;14.70;87.30
64888;DHT22;51386;53.082;8.816;2023-03-23T07:36:03;14.70;87.70
64888;DHT22;51386;53.082;8.816;2023-03-23T07:38:30;14.60;88.10
64888;DHT22;51386;53.082;8.816;2023-03-23T07:40:56;14.40;89.10
64888;DHT22;51386;53.082;8.816;2023-03-23T07:43:23;14.30;89.20
64888;DHT22;51386;53.082;8.816;2023-03-23T07:45:49;14.20;89.50
64888;DHT22;51386;53.082;8.816;2023-03-23T07:48:15;14.10;89.80
64888;DHT22;51386;53.082;8.816;2023-03-23T07:50:42;14.00;90.00
64888;DHT22;51386;53.082;8.816;2023-03-23T07:53:09;13.90;89.50
64888;DHT22;51386;53.082;8.816;2023-03-23T07:55:36;13.80;89.30
64888;DHT22;51386;53.082;8.816;2023-03-23T07:58:03;13.80;89.40
64888;DHT22;51386;53.082;8.816;2023-03-23T08:00:29;13.70;89.30
64888;DHT22;51386;53.082;8.816;2023-03-23T08:02:56;13.60;89.40
64888;DHT22;51386;53.082;8.816;2023-03-23T08:05:23;13.60;89.80
64888;DHT22;51386;53.082;8.816;2023-03-23T08:07:54;13.60;89.80
64888;DHT22;51386;53.082;8.816;2023-03-23T08:10:28;13.60;89.80
64888;DHT22;51386;53.082;8.816;2023-03-23T08:13:09;13.60;89.60
64888;DHT22;51386;53.082;8.816;2023-03-23T08:15:36;13.50;89.50
64888;DHT22;51386;53.082;8.816;2023-03-23T08:18:04;13.50;89.60
64888;DHT22;51386;53.082;8.816;2023-03-23T08:20:31;13.50;89.60
64888;DHT22;51386;53.082;8.816;2023-03-23T08:22:59;13.50;89.50
64888;DHT22;51386;53.082;8.816;2023-03-23T08:25:27;13.50;89.30
64888;DHT22;51386;53.082;8.816;2023-03-23T08:27:57;13.60;89.40
64888;DHT22;51386;53.082;8.816;2023-03-23T08:30:24;13.60;90.10
64888;DHT22;51386;53.082;8.816;2023-03-23T08:32:54;13.50;89.40
64888;DHT22;51386;53.082;8.816;2023-03-23T08:35:21;13.50;89.40
64888;DHT22;51386;53.082;8.816;2023-03-23T08:37:47;13.50;89.30
64888;DHT22;51386;53.082;8.816;2023-03-23T08:40:19;13.50;89.40
64888;DHT22;51386;53.082;8.816;2023-03-23T08:42:48;13.50;89.70
64888;DHT22;51386;53.082;8.816;2023-03-23T08:45:18;13.50;89.80
64888;DHT22;51386;53.082;8.816;2023-03-23T08:47:46;13.50;89.90
64888;DHT22;51386;53.082;8.816;2023-03-23T08:50:19;13.50;90.00
64888;DHT22;51386;53.082;8.816;2023-03-23T08:52:48;13.60;89.80
64888;DHT22;51386;53.082;8.816;2023-03-23T08:55:15;13.60;89.70
64888;DHT22;51386;53.082;8.816;2023-03-23T08:57:44;13.70;89.60
64888;DHT22;51386;53.082;8.816;2023-03-23T09:00:15;13.80;89.60
64888;DHT22;51386;53.082;8.816;2023-03-23T09:02:48;13.90;89.40
64888;DHT22;51386;53.082;8.816;2023-03-23T09:05:25;13.90;88.70
64888;DHT22;51386;53.082;8.816;2023-03-23T09:07:55;14.00;88.60
64888;DHT22;51386;53.082;8.816;2023-03-23T09:10:25;14.00;88.60
64888;DHT22;51386;53.082;8.816;2023-03-23T09:12:54;14.00;88.60
64888;DHT22;51386;53.082;8.816;2023-03-23T09:15:21;14.10;88.70
64888;DHT22;51386;53.082;8.816;2023-03-23T09:17:49;14.20;88.60
64888;DHT22;51386;53.082;8.816;2023-03-23T09:20:20;14.20;88.30
64888;DHT22;51386;53.082;8.816;2023-03-23T09:22:50;14.20;88.20
64888;DHT22;51386;53.082;8.816;2023-03-23T09:25:21;14.20;87.90
64888;DHT22;51386;53.082;8.816;2023-03-23T09:27:55;14.20;87.90
64888;DHT22;51386;53.082;8.816;2023-03-23T09:30:24;14.20;88.10
64888;DHT22;51386;53.082;8.816;2023-03-23T09:32:52;14.20;88.10
64888;DHT22;51386;53.082;8.816;2023-03-23T09:35:20;14.30;88.00
64888;DHT22;51386;53.082;8.816;2023-03-23T09:37:49;14.30;87.70
64888;DHT22;51386;53.082;8.816;2023-03-23T09:40:18;14.30;87.40
64888;DHT22;51386;53.082;8.816;2023-03-23T09:42:58;14.40;87.70
64888;DHT22;51386;53.082;8.816;2023-03-23T09:45:41;14.40;87.50
64888;DHT22;51386;53.082;8.816;2023-03-23T09:48:29;14.50;87.00
64888;DHT22;51386;53.082;8.816;2023-03-23T09:51:12;14.50;86.80
64888;DHT22;51386;53.082;8.816;2023-03-23T09:53:50;14.60;86.20
64888;DHT22;51386;53.082;8.816;2023-03-23T09:56:25;14.60;84.70
64888;DHT22;51386;53.082;8.816;2023-03-23T09:58:58;14.60;85.20
64888;DHT22;51386;53.082;8.816;2023-03-23T10:01:32;14.60;85.30
64888;DHT22;51386;53.082;8.816;2023-03-23T10:04:05;14.70;85.80
64888;DHT22;51386;53.082;8.816;2023-03-23T10:06:37;14.90;85.20
64888;DHT22;51386;53.082;8.816;2023-03-23T10:09:05;15.00;84.00
64888;DHT22;51386;53.082;8.816;2023-03-23T10:11:44;15.20;84.00
64888;DHT22;51386;53.082;8.816;2023-03-23T10:14:37;15.30;83.40
64888;DHT22;51386;53.082;8.816;2023-03-23T10:17:15;15.40;81.90
64888;DHT22;51386;53.082;8.816;2023-03-23T10:19:49;15.60;82.30
64888;DHT22;51386;53.082;8.816;2023-03-23T10:22:25;15.70;82.60
64888;DHT22;51386;53.082;8.816;2023-03-23T10:25:08;15.90;82.20
64888;DHT22;51386;53.082;8.816;2023-03-23T10:32:37;16.20;79.80
64888;DHT22;51386;53.082;8.816;2023-03-23T10:35:46;16.20;79.30
64888;DHT22;51386;53.082;8.816;2023-03-23T10:38:39;16.20;79.10
64888;DHT22;51386;53.082;8.816;2023-03-23T10:42:21;16.20;79.20
64888;DHT22;51386;53.082;8.816;2023-03-23T10:45:44;16.30;79.40
64888;DHT22;51386;53.082;8.816;2023-03-23T10:54:02;16.40;78.80
64888;DHT22;51386;53.082;8.816;2023-03-23T10:58:09;16.40;77.90
64888;DHT22;51386;53.082;8.816;2023-03-23T11:00:59;16.40;78.20
64888;DHT22;51386;53.082;8.816;2023-03-23T11:06:42;16.50;77.50
64888;DHT22;51386;53.082;8.816;2023-03-23T11:09:53;16.40;77.00
64888;DHT22;51386;53.082;8.816;2023-03-23T11:12:43;16.40;76.40
64888;DHT22;51386;53.082;8.816;2023-03-23T11:15:28;16.30;76.80
64888;DHT22;51386;53.082;8.816;2023-03-23T11:19:11;16.30;77.00
64888;DHT22;51386;53.082;8.816;2023-03-23T11:21:47;16.30;77.00
64888;DHT22;51386;53.082;8.816;2023-03-23T11:24:17;16.30;76.80
64888;DHT22;51386;53.082;8.816;2023-03-23T11:26:45;16.40;77.40
64888;DHT22;51386;53.082;8.816;2023-03-23T11:29:14;16.40;77.20
64888;DHT22;51386;53.082;8.816;2023-03-23T11:31:45;16.40;77.30
64888;DHT22;51386;53.082;8.816;2023-03-23T11:34:20;16.40;77.50
64888;DHT22;51386;53.082;8.816;2023-03-23T11:36:50;16.40;77.10
64888;DHT22;51386;53.082;8.816;2023-03-23T11:39:21;16.40;76.00
64888;DHT22;51386;53.082;8.816;2023-03-23T11:41:50;16.40;76.40
64888;DHT22;51386;53.082;8.816;2023-03-23T11:44:17;16.40;77.50
64888;DHT22;51386;53.082;8.816;2023-03-23T11:46:49;16.50;78.00
64888;DHT22;51386;53.082;8.816;2023-03-23T11:49:30;16.80;78.00
64888;DHT22;51386;53.082;8.816;2023-03-23T11:52:09;17.10;76.10
64888;DHT22;51386;53.082;8.816;2023-03-23T11:54:43;17.40;75.20
64888;DHT22;51386;53.082;8.816;2023-03-23T11:57:15;17.60;73.70
64888;DHT22;51386;53.082;8.816;2023-03-23T11:59:43;17.90;73.80
64888;DHT22;51386;53.082;8.816;2023-03-23T12:02:32;17.90;71.30
64888;DHT22;51386;53.082;8.816;2023-03-23T12:05:34;18.00;72.00
64888;DHT22;51386;53.082;8.816;2023-03-23T12:08:22;17.90;71.50
64888;DHT22;51386;53.082;8.816;2023-03-23T12:11:05;18.00;72.80
64888;DHT22;51386;53.082;8.816;2023-03-23T12:16:20;18.40;71.70
64888;DHT22;51386;53.082;8.816;2023-03-23T12:19:03;18.60;70.80
64888;DHT22;51386;53.082;8.816;2023-03-23T12:21:46;18.70;69.60
64888;DHT22;51386;53.082;8.816;2023-03-23T12:24:29;18.70;69.50
64888;DHT22;51386;53.082;8.816;2023-03-23T12:27:09;18.70;68.90
64888;DHT22;51386;53.082;8.816;2023-03-23T12:29:57;18.60;67.80
64888;DHT22;51386;53.082;8.816;2023-03-23T12:32:43;18.60;69.20
64888;DHT22;51386;53.082;8.816;2023-03-23T12:35:32;18.60;69.70
64888;DHT22;51386;53.082;8.816;2023-03-23T12:38:20;18.80;69.50
64888;DHT22;51386;53.082;8.816;2023-03-23T12:41:12;18.80;66.90
64888;DHT22;51386;53.082;8.816;2023-03-23T12:43:49;18.80;66.00
64888;DHT22;51386;53.082;8.816;2023-03-23T12:46:41;18.70;65.90
64888;DHT22;51386;53.082;8.816;2023-03-23T12:49:21;18.70;66.00
64888;DHT22;51386;53.082;8.816;2023-03-23T12:51:55;18.70;66.50
64888;DHT22;51386;53.082;8.816;2023-03-23T12:54:30;18.90;67.30
64888;DHT22;51386;53.082;8.816;2023-03-23T12:57:05;19.10;66.00
64888;DHT22;51386;53.082;8.816;2023-03-23T12:59:41;19.40;64.20
64888;DHT22;51386;53.082;8.816;2023-03-23T13:02:18;19.50;62.30
64888;DHT22;51386;53.082;8.816;2023-03-23T13:04:51;19.60;62.10
64888;DHT22;51386;53.082;8.816;2023-03-23T13:07:26;19.70;61.30
64888;DHT22;51386;53.082;8.816;2023-03-23T13:10:21;19.80;60.60
64888;DHT22;51386;53.082;8.816;2023-03-23T13:13:19;20.00;60.00
64888;DHT22;51386;53.082;8.816;2023-03-23T13:16:18;20.00;60.10
64888;DHT22;51386;53.082;8.816;2023-03-23T13:19:08;20.20;59.50
64888;DHT22;51386;53.082;8.816;2023-03-23T13:23:07;20.50;59.40
64888;DHT22;51386;53.082;8.816;2023-03-23T13:25:48;20.90;57.50
64888;DHT22;51386;53.082;8.816;2023-03-23T13:28:18;21.10;56.80
64888;DHT22;51386;53.082;8.816;2023-03-23T13:31:24;21.10;55.00
64888;DHT22;51386;53.082;8.816;2023-03-23T13:38:34;20.50;55.50
64888;DHT22;51386;53.082;8.816;2023-03-23T13:41:07;20.00;56.10
64888;DHT22;51386;53.082;8.816;2023-03-23T13:43:36;19.60;57.10
64888;DHT22;51386;53.082;8.816;2023-03-23T13:46:10;19.30;56.40
64888;DHT22;51386;53.082;8.816;2023-03-23T13:48:51;18.90;57.80
64888;DHT22;51386;53.082;8.816;2023-03-23T13:51:35;18.50;59.70
64888;DHT22;51386;53.082;8.816;2023-03-23T13:54:25;17.90;64.20
64888;DHT22;51386;53.082;8.816;2023-03-23T13:56:57;17.20;67.00
64888;DHT22;51386;53.082;8.816;2023-03-23T13:59:33;16.70;68.40
64888;DHT22;51386;53.082;8.816;2023-03-23T14:02:28;16.00;71.00
64888;DHT22;51386;53.082;8.816;2023-03-23T14:05:08;15.50;73.00
64888;DHT22;51386;53.082;8.816;2023-03-23T14:07:54;15.10;74.00
64888;DHT22;51386;53.082;8.816;2023-03-23T14:10:23;14.70;75.60
64888;DHT22;51386;53.082;8.816;2023-03-23T14:12:53;14.30;76.50
64888;DHT22;51386;53.082;8.816;2023-03-23T14:15:20;14.10;78.60
64888;DHT22;51386;53.082;8.816;2023-03-23T14:17:46;13.80;79.50
64888;DHT22;51386;53.082;8.816;2023-03-23T14:20:24;13.60;81.10
64888;DHT22;51386;53.082;8.816;2023-03-23T14:22:55;13.50;82.40
64888;DHT22;51386;53.082;8.816;2023-03-23T14:25:27;13.40;82.80
64888;DHT22;51386;53.082;8.816;2023-03-23T14:27:56;13.30;83.50
64888;DHT22;51386;53.082;8.816;2023-03-23T14:30:24;13.30;84.80
64888;DHT22;51386;53.082;8.816;2023-03-23T14:32:51;13.50;87.10
64888;DHT22;51386;53.082;8.816;2023-03-23T14:35:24;13.70;88.00
64888;DHT22;51386;53.082;8.816;2023-03-23T14:37:53;14.00;88.70
64888;DHT22;51386;53.082;8.816;2023-03-23T14:40:20;14.40;87.90
64888;DHT22;51386;53.082;8.816;2023-03-23T14:42:50;14.80;88.10
64888;DHT22;51386;53.082;8.816;2023-03-23T14:45:21;15.10;87.70
64888;DHT22;51386;53.082;8.816;2023-03-23T14:47:51;15.40;85.60
64888;DHT22;51386;53.082;8.816;2023-03-23T14:50:24;15.80;86.30
64888;DHT22;51386;53.082;8.816;2023-03-23T14:52:57;16.10;84.80
64888;DHT22;51386;53.082;8.816;2023-03-23T14:55:25;16.40;82.30
64888;DHT22;51386;53.082;8.816;2023-03-23T14:57:55;16.50;81.50
64888;DHT22;51386;53.082;8.816;2023-03-23T15:00:23;16.60;80.80
64888;DHT22;51386;53.082;8.816;2023-03-23T15:03:02;16.60;80.00
64888;DHT22;51386;53.082;8.816;2023-03-23T15:05:34;16.70;80.80
64888;DHT22;51386;53.082;8.816;2023-03-23T15:08:07;16.90;81.70
64888;DHT22;51386;53.082;8.816;2023-03-23T15:10:37;17.20;78.40
64888;DHT22;51386;53.082;8.816;2023-03-23T15:13:05;17.50;76.60
64888;DHT22;51386;53.082;8.816;2023-03-23T15:15:36;17.80;73.30
64888;DHT22;51386;53.082;8.816;2023-03-23T15:18:03;18.10;71.50
64888;DHT22;51386;53.082;8.816;2023-03-23T15:20:32;18.40;72.00
64888;DHT22;51386;53.082;8.816;2023-03-23T15:23:15;18.60;70.60
64888;DHT22;51386;53.082;8.816;2023-03-23T15:25:48;18.80;70.70
64888;DHT22;51386;53.082;8.816;2023-03-23T15:28:18;19.00;68.30
64888;DHT22;51386;53.082;8.816;2023-03-23T15:30:48;19.10;69.10
64888;DHT22;51386;53.082;8.816;2023-03-23T15:33:16;19.20;67.80
64888;DHT22;51386;53.082;8.816;2023-03-23T15:35:47;19.20;66.00
64888;DHT22;51386;53.082;8.816;2023-03-23T15:38:18;19.20;64.90
64888;DHT22;51386;53.082;8.816;2023-03-23T15:40:50;19.00;62.90
64888;DHT22;51386;53.082;8.816;2023-03-23T15:43:21;18.90;62.70
64888;DHT22;51386;53.082;8.816;2023-03-23T15:45:55;18.70;63.30
64888;DHT22;51386;53.082;8.816;2023-03-23T15:48:26;18.60;64.20
64888;DHT22;51386;53.082;8.816;2023-03-23T15:50:53;18.40;64.60
64888;DHT22;51386;53.082;8.816;2023-03-23T15:53:28;18.30;63.50
64888;DHT22;51386;53.082;8.816;2023-03-23T15:55:59;18.20;63.30
64888;DHT22;51386;53.082;8.816;2023-03-23T15:58:32;18.00;61.80
64888;DHT22;51386;53.082;8.816;2023-03-23T16:01:05;17.90;62.50
64888;DHT22;51386;53.082;8.816;2023-03-23T16:03:39;17.80;63.00
64888;DHT22;51386;53.082;8.816;2023-03-23T16:06:10;17.70;63.80
64888;DHT22;51386;53.082;8.816;2023-03-23T16:08:50;17.60;63.00
64888;DHT22;51386;53.082;8.816;2023-03-23T16:11:22;17.50;63.80
64888;DHT22;51386;53.082;8.816;2023-03-23T16:13:52;17.40;63.90
64888;DHT22;51386;53.082;8.816;2023-03-23T16:16:22;17.30;63.80
64888;DHT22;51386;53.082;8.816;2023-03-23T16:18:53;17.30;63.70
64888;DHT22;51386;53.082;8.816;2023-03-23T16:21:20;17.20;63.40
64888;DHT22;51386;53.082;8.816;2023-03-23T16:23:48;17.10;63.50
64888;DHT22;51386;53.082;8.816;2023-03-23T16:26:15;17.00;63.60
64888;DHT22;51386;53.082;8.816;2023-03-23T16:28:43;16.90;64.00